Los Alamos, California
Current Conditions -  °F | °C
As of 12:15 AM on Friday 24 Oct 2014 (Local Time) from KLPC Reporting Station
Overcast Overcast  
Wind Chill: 57°   Ceiling: 400
Heat Index: 57°   Visibility: 10mi
Dew Point: 50°   Wind: 0mph
Humidity: 77%   Direction: NA
Pressure: 29.98"   Gusts: NA
Location:  34.74°N, 120.28°W
Report Text: KLPC 240715Z AUTO 00000KT 10SM OVC004 14/10 A2998 RMK AO1
Loading
Personal Weather Stations






























Interactive Weather Map
Tropical Storm Tracking
New forecast layout! Learn more

10-Day Weather Forecast

Advertisements
Track Severe Weather on mobile